^^
Datos históricos de la estación: Murcia-Puente Tocinos
Diario Informe para Mayo 11, 2021 Unidades:  Ambas    Ingés   Métrico
Diario Semanal Mensual Anual
  Máxima: Mínima: Promedio:
Temperatura: 75.9 °F /  24.4 °C 60.1 °F /  15.6 °C 67.5 °F /  19.7 °C
Punto de rocio: 46 °F /  7.8 °C 32.4 °F /  0.2 °C 38.5 °F /  3.6 °C
Humedad: 48% 22.6% 36%
Velocidad viento: 13.7mph /  22.1km/h - 7.8mph /  12.6km/h
Racha viento: 26mph /  41.8km/h - -
Viento- - OSO
Presión: 30.1 in /  1019.6 hPa 29.9 in /  1011.4 hPa -
Precipitación: 0 in /  0.0 mm    
 
 
Tabla de datos para Mayo 11, 2021
Hora Temperatura Punto de rocio Presión Viento Velocidad viento Racha viento Humedad Intensidad lluvia(por hora) Nubes
00:04 67.6 °F /  19.8 °C 41.5 °F /  5.3 °C 29.9in /  1011.4hPa SO 5.9mph /  9.5km/h 13mph /  20.9km/h 38.7% 0in /  0.0mm
00:09 67.6 °F /  19.8 °C 41.7 °F /  5.4 °C 29.9in /  1011.4hPa SO 6.2mph /  10km/h 16.1mph /  25.9km/h 39% 0in /  0.0mm
00:14 67.6 °F /  19.8 °C 41.7 °F /  5.4 °C 29.9in /  1011.8hPa SO 6.4mph /  10.3km/h 19mph /  30.6km/h 39% 0in /  0.0mm
00:19 67.5 °F /  19.7 °C 41.5 °F /  5.3 °C 29.9in /  1011.8hPa OSO 8.8mph /  14.2km/h 23mph /  37km/h 39% 0in /  0.0mm
00:24 67.5 °F /  19.7 °C 41.5 °F /  5.3 °C 29.9in /  1011.8hPa OSO 10.2mph /  16.4km/h 23mph /  37km/h 39% 0in /  0.0mm
00:29 67.3 °F /  19.6 °C 41.4 °F /  5.2 °C 29.9in /  1011.8hPa OSO 11mph /  17.7km/h 23mph /  37km/h 39% 0in /  0.0mm
00:34 66.9 °F /  19.4 °C 41.2 °F /  5.1 °C 29.9in /  1011.8hPa OSO 11.4mph /  18.4km/h 19mph /  30.6km/h 39% 0in /  0.0mm
00:39 66.7 °F /  19.3 °C 41.4 °F /  5.2 °C 29.9in /  1011.8hPa OSO 10.6mph /  17km/h 19mph /  30.6km/h 39.4% 0in /  0.0mm
00:44 66.7 °F /  19.3 °C 41.5 °F /  5.3 °C 29.9in /  1012.0hPa SO 10mph /  16.1km/h 17.3mph /  27.8km/h 39.8% 0in /  0.0mm
00:49 66.6 °F /  19.2 °C 41.5 °F /  5.3 °C 29.9in /  1012.0hPa SO 9.3mph /  14.9km/h 17.5mph /  28.2km/h 40% 0in /  0.0mm
00:54 66.4 °F /  19.1 °C 41.4 °F /  5.2 °C 29.9in /  1012.0hPa OSO 8.7mph /  14km/h 19mph /  30.6km/h 40% 0in /  0.0mm
00:59 66.4 °F /  19.1 °C 41.2 °F /  5.1 °C 29.9in /  1012.2hPa SO 10.2mph /  16.4km/h 19mph /  30.6km/h 40% 0in /  0.0mm
01:04 66 °F /  18.9 °C 41.4 °F /  5.2 °C 29.9in /  1012.2hPa OSO 11.2mph /  18km/h 23mph /  37km/h 40.4% 0in /  0.0mm
01:09 66 °F /  18.9 °C 41.5 °F /  5.3 °C 29.9in /  1012.2hPa SO 11.3mph /  18.2km/h 23mph /  37km/h 41% 0in /  0.0mm
01:14 65.8 °F /  18.8 °C 41.5 °F /  5.3 °C 29.9in /  1012.3hPa SO 11.4mph /  18.4km/h 18mph /  29km/h 41% 0in /  0.0mm
01:19 65.8 °F /  18.8 °C 41.5 °F /  5.3 °C 29.9in /  1012.3hPa SO 9.7mph /  15.6km/h 18.4mph /  29.6km/h 41% 0in /  0.0mm
01:24 65.7 °F /  18.7 °C 41.9 °F /  5.5 °C 29.9in /  1012.3hPa OSO 8.7mph /  14km/h 15.2mph /  24.5km/h 41.9% 0in /  0.0mm
01:29 65.7 °F /  18.7 °C 41.9 °F /  5.5 °C 29.9in /  1012.5hPa SO 8.6mph /  13.8km/h 15.9mph /  25.6km/h 42% 0in /  0.0mm
01:34 65.5 °F /  18.6 °C 41.7 °F /  5.4 °C 29.9in /  1012.5hPa SO 8.5mph /  13.7km/h 16.1mph /  25.9km/h 42% 0in /  0.0mm
01:39 65.1 °F /  18.4 °C 42.1 °F /  5.6 °C 29.9in /  1012.5hPa SO 9.3mph /  14.9km/h 16mph /  25.7km/h 42.9% 0in /  0.0mm
01:44 64.9 °F /  18.3 °C 42.1 °F /  5.6 °C 29.9in /  1012.5hPa SO 9.7mph /  15.6km/h 16.1mph /  25.9km/h 43% 0in /  0.0mm
01:49 64.9 °F /  18.3 °C 41.9 °F /  5.5 °C 29.9in /  1012.4hPa SO 9.9mph /  15.9km/h 16.1mph /  25.9km/h 43% 0in /  0.0mm
01:54 64.9 °F /  18.3 °C 41.9 °F /  5.5 °C 29.9in /  1012.4hPa SO 10mph /  16.1km/h 21.9mph /  35.2km/h 43% 0in /  0.0mm
01:59 64.9 °F /  18.3 °C 41.9 °F /  5.5 °C 29.9in /  1012.4hPa OSO 11.4mph /  18.3km/h 22mph /  35.4km/h 43% 0in /  0.0mm
02:04 64.9 °F /  18.3 °C 41.9 °F /  5.5 °C 29.9in /  1012.3hPa SO 12.3mph /  19.8km/h 23.5mph /  37.8km/h 43% 0in /  0.0mm
02:09 64.8 °F /  18.2 °C 41.7 °F /  5.4 °C 29.9in /  1012.3hPa SO 12.3mph /  19.8km/h 25.6mph /  41.2km/h 43% 0in /  0.0mm
02:14 64.6 °F /  18.1 °C 41.5 °F /  5.3 °C 29.9in /  1012.4hPa OSO 12.3mph /  19.8km/h 26mph /  41.8km/h 43% 0in /  0.0mm
02:19 64.4 °F /  18 °C 41.7 °F /  5.4 °C 29.9in /  1012.4hPa OSO 13.1mph /  21.1km/h 23mph /  37km/h 43.4% 0in /  0.0mm
02:24 64.2 °F /  17.9 °C 41.7 °F /  5.4 °C 29.9in /  1012.4hPa OSO 13.7mph /  22.1km/h 20.7mph /  33.3km/h 44% 0in /  0.0mm
02:29 64.2 °F /  17.9 °C 41.7 °F /  5.4 °C 29.9in /  1012.7hPa SO 12.8mph /  20.6km/h 21mph /  33.8km/h 44% 0in /  0.0mm
02:34 64 °F /  17.8 °C 41.7 °F /  5.4 °C 29.9in /  1012.7hPa SO 12.3mph /  19.8km/h 19mph /  30.6km/h 44% 0in /  0.0mm
02:39 64 °F /  17.8 °C 41.7 °F /  5.4 °C 29.9in /  1012.7hPa SO 11.3mph /  18.2km/h 17.3mph /  27.8km/h 44% 0in /  0.0mm
02:44 64 °F /  17.8 °C 41.5 °F /  5.3 °C 29.9in /  1012.8hPa SO 10.7mph /  17.2km/h 17.3mph /  27.8km/h 43.6% 0in /  0.0mm
02:49 63.9 °F /  17.7 °C 41.5 °F /  5.3 °C 29.9in /  1012.8hPa SO 10.7mph /  17.2km/h 19mph /  30.6km/h 44% 0in /  0.0mm
02:54 63.9 °F /  17.7 °C 41.4 °F /  5.2 °C 29.9in /  1012.8hPa SO 10.7mph /  17.2km/h 19mph /  30.6km/h 44% 0in /  0.0mm
02:59 63.5 °F /  17.5 °C 41.4 °F /  5.2 °C 29.9in /  1012.8hPa SO 10.1mph /  16.2km/h 16.1mph /  25.9km/h 44.2% 0in /  0.0mm
03:04 63.3 °F /  17.4 °C 41.5 °F /  5.3 °C 29.9in /  1012.7hPa SO 9.7mph /  15.6km/h 16mph /  25.7km/h 45% 0in /  0.0mm
03:09 63.3 °F /  17.4 °C 41.5 °F /  5.3 °C 29.9in /  1012.7hPa SO 8.3mph /  13.3km/h 13mph /  20.9km/h 45% 0in /  0.0mm
03:14 63.3 °F /  17.4 °C 41.5 °F /  5.3 °C 29.9in /  1012.8hPa SO 7.4mph /  11.9km/h 13mph /  20.9km/h 45% 0in /  0.0mm
03:19 63.1 °F /  17.3 °C 41.4 °F /  5.2 °C 29.9in /  1012.8hPa SO 6.8mph /  10.9km/h 13mph /  20.9km/h 45% 0in /  0.0mm
03:24 63 °F /  17.2 °C 41.7 °F /  5.4 °C 29.9in /  1012.8hPa OSO 6.4mph /  10.3km/h 13.8mph /  22.2km/h 45.6% 0in /  0.0mm
03:29 62.8 °F /  17.1 °C 41.7 °F /  5.4 °C 29.9in /  1013.1hPa OSO 7mph /  11.2km/h 14mph /  22.5km/h 46% 0in /  0.0mm
03:34 62.8 °F /  17.1 °C 41.7 °F /  5.4 °C 29.9in /  1013.1hPa OSO 7.4mph /  11.9km/h 13mph /  20.9km/h 46% 0in /  0.0mm
03:39 62.8 °F /  17.1 °C 41.5 °F /  5.3 °C 29.9in /  1013.1hPa SO 6.8mph /  10.9km/h 11.5mph /  18.5km/h 46% 0in /  0.0mm
03:44 62.8 °F /  17.1 °C 41.7 °F /  5.4 °C 29.9in /  1013.2hPa SO 6.4mph /  10.3km/h 14mph /  22.5km/h 46% 0in /  0.0mm
03:49 62.6 °F /  17 °C 41.5 °F /  5.3 °C 29.9in /  1013.2hPa SO 7.4mph /  11.9km/h 13.8mph /  22.2km/h 46% 0in /  0.0mm
03:54 62.6 °F /  17 °C 41.5 °F /  5.3 °C 29.9in /  1013.2hPa SO 8.1mph /  13km/h 15mph /  24.1km/h 46% 0in /  0.0mm
03:59 62.6 °F /  17 °C 41.5 °F /  5.3 °C 29.9in /  1013.2hPa SO 7.8mph /  12.5km/h 15mph /  24.1km/h 46% 0in /  0.0mm
04:04 62.4 °F /  16.9 °C 41.4 °F /  5.2 °C 29.9in /  1013.2hPa SO 7.6mph /  12.2km/h 15.2mph /  24.5km/h 46% 0in /  0.0mm
04:09 62.4 °F /  16.9 °C 41.4 °F /  5.2 °C 29.9in /  1013.2hPa SO 8.3mph /  13.3km/h 15mph /  24.1km/h 46% 0in /  0.0mm
04:14 62.4 °F /  16.9 °C 41 °F /  5 °C 29.9in /  1013.3hPa SO 8.7mph /  14km/h 15.2mph /  24.5km/h 45.2% 0in /  0.0mm
04:19 62.6 °F /  17 °C 40.8 °F /  4.9 °C 29.9in /  1013.3hPa SO 8.7mph /  14km/h 15mph /  24.1km/h 45% 0in /  0.0mm
04:24 62.4 °F /  16.9 °C 41.4 °F /  5.2 °C 29.9in /  1013.3hPa SSO 8.7mph /  14km/h 14mph /  22.5km/h 45.8% 0in /  0.0mm
04:29 62.4 °F /  16.9 °C 41.4 °F /  5.2 °C 29.9in /  1013.4hPa SSO 8.3mph /  13.4km/h 14mph /  22.5km/h 46% 0in /  0.0mm
04:34 62.4 °F /  16.9 °C 41.4 °F /  5.2 °C 29.9in /  1013.4hPa SSO 8.1mph /  13km/h 13mph /  20.9km/h 45.8% 0in /  0.0mm
04:39 62.4 °F /  16.9 °C 41 °F /  5 °C 29.9in /  1013.4hPa SO 7.8mph /  12.6km/h 13.8mph /  22.2km/h 45.4% 0in /  0.0mm
04:44 62.2 °F /  16.8 °C 41.2 °F /  5.1 °C 29.9in /  1013.4hPa SO 7.6mph /  12.2km/h 14mph /  22.5km/h 46% 0in /  0.0mm
04:49 62.2 °F /  16.8 °C 41.2 °F /  5.1 °C 29.9in /  1013.3hPa SO 6.9mph /  11.1km/h 12mph /  19.3km/h 46% 0in /  0.0mm
04:54 62.1 °F /  16.7 °C 41 °F /  5 °C 29.9in /  1013.3hPa SO 6.4mph /  10.3km/h 9mph /  14.5km/h 46% 0in /  0.0mm
04:59 61.9 °F /  16.6 °C 40.8 °F /  4.9 °C 29.9in /  1013.5hPa SSO 6.3mph /  10.1km/h 10.4mph /  16.7km/h 46% 0in /  0.0mm
05:04 61.7 °F /  16.5 °C 40.6 °F /  4.8 °C 29.9in /  1013.5hPa SSO 6.2mph /  10km/h 11.8mph /  19km/h 46% 0in /  0.0mm
05:09 61.5 °F /  16.4 °C 40.5 °F /  4.7 °C 29.9in /  1013.5hPa SSO 6.3mph /  10.2km/h 11.5mph /  18.5km/h 46% 0in /  0.0mm
05:14 61.3 °F /  16.3 °C 40.5 °F /  4.7 °C 29.9in /  1013.6hPa Sur 6.4mph /  10.3km/h 10.7mph /  17.2km/h 46% 0in /  0.0mm
05:19 61.3 °F /  16.3 °C 40.5 °F /  4.7 °C 29.9in /  1013.6hPa Sur 7.1mph /  11.5km/h 12.7mph /  20.4km/h 46% 0in /  0.0mm
05:24 61.3 °F /  16.3 °C 40.5 °F /  4.7 °C 29.9in /  1013.6hPa Sur 7.6mph /  12.2km/h 13mph /  20.9km/h 46% 0in /  0.0mm
05:29 61.3 °F /  16.3 °C 40.5 °F /  4.7 °C 29.9in /  1013.7hPa Sur 7.5mph /  12km/h 13mph /  20.9km/h 46% 0in /  0.0mm
05:34 61.3 °F /  16.3 °C 40.5 °F /  4.7 °C 29.9in /  1013.7hPa Sur 7.4mph /  11.9km/h 10mph /  16.1km/h 46% 0in /  0.0mm
05:39 61.3 °F /  16.3 °C 40.5 °F /  4.7 °C 29.9in /  1013.7hPa Sur 6.6mph /  10.7km/h 10.4mph /  16.7km/h 46% 0in /  0.0mm
05:44 61.2 °F /  16.2 °C 40.3 °F /  4.6 °C 29.9in /  1013.9hPa SSE 6.2mph /  10km/h 10.4mph /  16.7km/h 46% 0in /  0.0mm
05:49 61.2 °F /  16.2 °C 40.3 °F /  4.6 °C 29.9in /  1013.9hPa Sur 6.2mph /  10km/h 10mph /  16.1km/h 46% 0in /  0.0mm
05:54 61.2 °F /  16.2 °C 40.3 °F /  4.6 °C 29.9in /  1013.9hPa Sur 6.2mph /  10km/h 8.1mph /  13km/h 46% 0in /  0.0mm
05:59 61 °F /  16.1 °C 40.1 °F /  4.5 °C 30in /  1014.4hPa SO 5.2mph /  8.4km/h 8.1mph /  13km/h 46% 0in /  0.0mm
06:04 61 °F /  16.1 °C 40.5 °F /  4.7 °C 30in /  1014.4hPa SO 4.7mph /  7.6km/h 8mph /  12.9km/h 46.8% 0in /  0.0mm
06:09 60.6 °F /  15.9 °C 40.3 °F /  4.6 °C 30in /  1014.4hPa SSO 3.5mph /  5.7km/h 5.9mph /  9.5km/h 47% 0in /  0.0mm
06:14 60.6 °F /  15.9 °C 40.3 °F /  4.6 °C 30in /  1014.4hPa Sur 2.9mph /  4.7km/h 6mph /  9.7km/h 47% 0in /  0.0mm
06:19 60.4 °F /  15.8 °C 40.1 °F /  4.5 °C 30in /  1014.4hPa SE 3mph /  4.8km/h 5mph /  8km/h 47% 0in /  0.0mm
06:24 60.6 °F /  15.9 °C 40.3 °F /  4.6 °C 30in /  1014.4hPa Sur 3.1mph /  5km/h 6.2mph /  10km/h 47% 0in /  0.0mm
06:29 60.6 °F /  15.9 °C 40.3 °F /  4.6 °C 30in /  1014.6hPa SSO 3.4mph /  5.5km/h 9.2mph /  14.8km/h 47% 0in /  0.0mm
06:34 60.4 °F /  15.8 °C 40.1 °F /  4.5 °C 30in /  1014.6hPa SSO 3.6mph /  5.8km/h 9mph /  14.5km/h 47% 0in /  0.0mm
06:39 60.4 °F /  15.8 °C 40.1 °F /  4.5 °C 30in /  1014.6hPa SSO 4.2mph /  6.8km/h 9mph /  14.5km/h 47% 0in /  0.0mm
06:44 60.3 °F /  15.7 °C 39.9 °F /  4.4 °C 30in /  1014.7hPa SO 4.7mph /  7.6km/h 6.2mph /  10km/h 47.1% 0in /  0.0mm
06:49 60.3 °F /  15.7 °C 40.5 °F /  4.7 °C 30in /  1014.7hPa SO 4.2mph /  6.8km/h 6.9mph /  11.1km/h 48% 0in /  0.0mm
06:54 60.1 °F /  15.6 °C 40.3 °F /  4.6 °C 30in /  1014.7hPa OSO 4mph /  6.5km/h 7.4mph /  11.9km/h 48% 0in /  0.0mm
06:59 60.1 °F /  15.6 °C 40.3 °F /  4.6 °C 30in /  1015.1hPa SO 3.4mph /  5.5km/h 7mph /  11.3km/h 48% 0in /  0.0mm
07:04 60.1 °F /  15.6 °C 40.3 °F /  4.6 °C 30in /  1015.1hPa SO 3.1mph /  5km/h 7mph /  11.3km/h 48% 0in /  0.0mm
07:09 60.1 °F /  15.6 °C 40.3 °F /  4.6 °C 30in /  1015.1hPa SO 3.6mph /  5.8km/h 7.4mph /  11.9km/h 48% 0in /  0.0mm
07:14 60.1 °F /  15.6 °C 40.3 °F /  4.6 °C 30in /  1015.3hPa SO 4mph /  6.5km/h 9.2mph /  14.8km/h 48% 0in /  0.0mm
07:19 60.3 °F /  15.7 °C 40.1 °F /  4.5 °C 30in /  1015.3hPa SO 4.8mph /  7.7km/h 9mph /  14.5km/h 47.4% 0in /  0.0mm
07:24 60.3 °F /  15.7 °C 39.9 °F /  4.4 °C 30in /  1015.3hPa SO 5.2mph /  8.4km/h 8.1mph /  13km/h 47.1% 0in /  0.0mm
07:29 60.3 °F /  15.7 °C 39.9 °F /  4.4 °C 30in /  1015.4hPa SO 4.6mph /  7.4km/h 8mph /  12.9km/h 47% 0in /  0.0mm
07:34 60.3 °F /  15.7 °C 39.9 °F /  4.4 °C 30in /  1015.4hPa SO 4.3mph /  6.9km/h 9.2mph /  14.8km/h 47% 0in /  0.0mm
07:39 60.3 °F /  15.7 °C 39.9 °F /  4.4 °C 30in /  1015.4hPa SO 5mph /  8.1km/h 9.7mph /  15.6km/h 47% 0in /  0.0mm
07:44 60.3 °F /  15.7 °C 39.9 °F /  4.4 °C 30in /  1015.7hPa SO 5.4mph /  8.7km/h 10mph /  16.1km/h 47% 0in /  0.0mm
07:49 60.1 °F /  15.6 °C 39.9 °F /  4.4 °C 30in /  1015.7hPa SO 5.7mph /  9.2km/h 9.2mph /  14.8km/h 47% 0in /  0.0mm
07:54 60.3 °F /  15.7 °C 39.9 °F /  4.4 °C 30in /  1015.7hPa SO 5.9mph /  9.5km/h 9.2mph /  14.8km/h 46.9% 0in /  0.0mm
07:59 60.4 °F /  15.8 °C 39.9 °F /  4.4 °C 30in /  1016.0hPa SO 5.6mph /  9km/h 9mph /  14.5km/h 46.9% 0in /  0.0mm
08:04 60.6 °F /  15.9 °C 39.7 °F /  4.3 °C 30in /  1016.0hPa SSO 5.4mph /  8.7km/h 8.1mph /  13km/h 46.1% 0in /  0.0mm
08:09 60.8 °F /  16 °C 39.6 °F /  4.2 °C 30in /  1016.0hPa SSO 5mph /  8.1km/h 8.5mph /  13.7km/h 45.3% 0in /  0.0mm
08:14 61 °F /  16.1 °C 39.6 °F /  4.2 °C 30in /  1016.2hPa SSO 4.7mph /  7.6km/h 10.4mph /  16.7km/h 45% 0in /  0.0mm
08:19 61.2 °F /  16.2 °C 39.2 °F /  4 °C 30in /  1016.2hPa SO 5.8mph /  9.3km/h 12.7mph /  20.4km/h 44.2% 0in /  0.0mm
08:24 61.3 °F /  16.3 °C 39.2 °F /  4 °C 30in /  1016.2hPa SO 6.4mph /  10.3km/h 13mph /  20.9km/h 43.9% 0in /  0.0mm
08:29 61.5 °F /  16.4 °C 39 °F /  3.9 °C 30in /  1016.5hPa SO 6.4mph /  10.3km/h 13mph /  20.9km/h 43.3% 0in /  0.0mm
08:34 61.7 °F /  16.5 °C 39 °F /  3.9 °C 30in /  1016.5hPa SO 6.4mph /  10.3km/h 11.8mph /  19km/h 43% 0in /  0.0mm
08:39 61.9 °F /  16.6 °C 39 °F /  3.9 °C 30in /  1016.5hPa SO 6.7mph /  10.8km/h 12mph /  19.3km/h 43% 0in /  0.0mm
08:44 62.1 °F /  16.7 °C 38.8 °F /  3.8 °C 30in /  1016.6hPa OSO 6.9mph /  11.1km/h 12mph /  19.3km/h 42.5% 0in /  0.0mm
08:49 62.1 °F /  16.7 °C 38.7 °F /  3.7 °C 30in /  1016.6hPa OSO 6.6mph /  10.6km/h 13mph /  20.9km/h 42.1% 0in /  0.0mm
08:54 62.2 °F /  16.8 °C 38.8 °F /  3.8 °C 30in /  1016.6hPa OSO 6.4mph /  10.3km/h 13mph /  20.9km/h 42% 0in /  0.0mm
08:59 62.4 °F /  16.9 °C 39 °F /  3.9 °C 30in /  1016.8hPa OSO 7.1mph /  11.4km/h 12.7mph /  20.4km/h 42% 0in /  0.0mm
09:04 62.6 °F /  17 °C 39.2 °F /  4 °C 30in /  1016.8hPa OSO 7.4mph /  11.9km/h 13mph /  20.9km/h 42% 0in /  0.0mm
09:09 62.6 °F /  17 °C 39.4 °F /  4.1 °C 30in /  1016.8hPa Oeste 7.5mph /  12.1km/h 13mph /  20.9km/h 42.2% 0in /  0.0mm
09:14 62.8 °F /  17.1 °C 39.6 °F /  4.2 °C 30in /  1016.9hPa OSO 7.6mph /  12.2km/h 15.6mph /  25.1km/h 42.6% 0in /  0.0mm
09:19 63 °F /  17.2 °C 39 °F /  3.9 °C 30in /  1016.9hPa OSO 8.3mph /  13.4km/h 16.1mph /  25.9km/h 41.3% 0in /  0.0mm
09:24 63.1 °F /  17.3 °C 38.7 °F /  3.7 °C 30in /  1016.9hPa OSO 8.7mph /  14km/h 16mph /  25.7km/h 40.5% 0in /  0.0mm
09:29 63.3 °F /  17.4 °C 38.7 °F /  3.7 °C 30in /  1017.1hPa OSO 8.3mph /  13.4km/h 15mph /  24.1km/h 40.1% 0in /  0.0mm
09:34 63.9 °F /  17.7 °C 38.3 °F /  3.5 °C 30in /  1017.1hPa OSO 8.1mph /  13km/h 18.4mph /  29.6km/h 38.9% 0in /  0.0mm
09:39 63.9 °F /  17.7 °C 37.8 °F /  3.2 °C 30in /  1017.1hPa ONO 9.2mph /  14.8km/h 19.6mph /  31.5km/h 38% 0in /  0.0mm
09:44 63.9 °F /  17.7 °C 37.8 °F /  3.2 °C 30in /  1017.2hPa ONO 10mph /  16.1km/h 20mph /  32.2km/h 38% 0in /  0.0mm
09:49 64 °F /  17.8 °C 37.8 °F /  3.2 °C 30in /  1017.2hPa Oeste 10mph /  16.1km/h 15.9mph /  25.6km/h 37.5% 0in /  0.0mm
09:54 64.2 °F /  17.9 °C 37.2 °F /  2.9 °C 30in /  1017.2hPa OSO 10mph /  16.1km/h 23.5mph /  37.8km/h 36.7% 0in /  0.0mm
09:59 64.2 °F /  17.9 °C 36.7 °F /  2.6 °C 30.1in /  1017.5hPa OSO 10.4mph /  16.8km/h 23mph /  37km/h 36% 0in /  0.0mm
10:04 64.2 °F /  17.9 °C 36.7 °F /  2.6 °C 30.1in /  1017.5hPa OSO 10.7mph /  17.2km/h 21mph /  33.8km/h 35.9% 0in /  0.0mm
10:09 64.4 °F /  18 °C 36.3 °F /  2.4 °C 30.1in /  1017.5hPa Oeste 11.3mph /  18.2km/h 20.7mph /  33.3km/h 35.3% 0in /  0.0mm
10:14 64.4 °F /  18 °C 36.9 °F /  2.7 °C 30.1in /  1017.5hPa Oeste 11.8mph /  19km/h 21mph /  33.8km/h 35.9% 0in /  0.0mm
10:19 64.8 °F /  18.2 °C 36.9 °F /  2.7 °C 30.1in /  1017.5hPa Oeste 11.1mph /  17.9km/h 19.7mph /  31.7km/h 35.8% 0in /  0.0mm
10:24 64.8 °F /  18.2 °C 36.7 °F /  2.6 °C 30.1in /  1017.5hPa Oeste 10.7mph /  17.2km/h 20.7mph /  33.3km/h 35.1% 0in /  0.0mm
10:29 64.9 °F /  18.3 °C 36.7 °F /  2.6 °C 30.1in /  1017.8hPa Oeste 10.4mph /  16.7km/h 16.3mph /  26.2km/h 35.2% 0in /  0.0mm
10:34 65.1 °F /  18.4 °C 36.9 °F /  2.7 °C 30.1in /  1017.8hPa Oeste 10.2mph /  16.4km/h 16mph /  25.7km/h 35% 0in /  0.0mm
10:39 65.1 °F /  18.4 °C 36.7 °F /  2.6 °C 30.1in /  1017.8hPa ONO 10.1mph /  16.2km/h 19mph /  30.6km/h 34.8% 0in /  0.0mm
10:44 65.1 °F /  18.4 °C 36.7 °F /  2.6 °C 30.1in /  1017.9hPa ONO 10mph /  16.1km/h 20.7mph /  33.3km/h 34.8% 0in /  0.0mm
10:49 65.3 °F /  18.5 °C 36.7 °F /  2.6 °C 30.1in /  1017.9hPa ONO 11.1mph /  17.8km/h 21mph /  33.8km/h 34.7% 0in /  0.0mm
10:54 65.5 °F /  18.6 °C 36.9 °F /  2.7 °C 30.1in /  1017.9hPa Oeste 11.8mph /  19km/h 17.3mph /  27.8km/h 34.8% 0in /  0.0mm
10:59 65.5 °F /  18.6 °C 36.3 °F /  2.4 °C 30.1in /  1018.0hPa Oeste 10.4mph /  16.8km/h 18.5mph /  29.8km/h 34% 0in /  0.0mm
11:04 65.5 °F /  18.6 °C 36.3 °F /  2.4 °C 30.1in /  1018.0hPa Oeste 9.7mph /  15.6km/h 19mph /  30.6km/h 34% 0in /  0.0mm
11:09 65.8 °F /  18.8 °C 36.5 °F /  2.5 °C 30.1in /  1018.0hPa Oeste 9.4mph /  15.1km/h 16mph /  25.7km/h 33.8% 0in /  0.0mm
11:14 66 °F /  18.9 °C 36.1 °F /  2.3 °C 30.1in /  1018.0hPa Oeste 9.2mph /  14.8km/h 16.3mph /  26.2km/h 33.1% 0in /  0.0mm
11:19 66 °F /  18.9 °C 36.3 °F /  2.4 °C 30.1in /  1018.0hPa ONO 8.5mph /  13.7km/h 20.7mph /  33.3km/h 33.4% 0in /  0.0mm
11:24 66.4 °F /  19.1 °C 36.5 °F /  2.5 °C 30.1in /  1018.0hPa NO 8.1mph /  13km/h 21mph /  33.8km/h 33.1% 0in /  0.0mm
11:29 66.4 °F /  19.1 °C 36 °F /  2.2 °C 30.1in /  1018.2hPa ONO 9.7mph /  15.6km/h 20.4mph /  32.8km/h 32.5% 0in /  0.0mm
11:34 66.2 °F /  19 °C 35.8 °F /  2.1 °C 30.1in /  1018.2hPa ONO 10.7mph /  17.2km/h 21mph /  33.8km/h 32.4% 0in /  0.0mm
11:39 66.4 °F /  19.1 °C 36.3 °F /  2.4 °C 30.1in /  1018.2hPa ONO 11.6mph /  18.7km/h 18.4mph /  29.6km/h 32.8% 0in /  0.0mm
11:44 66.7 °F /  19.3 °C 35.8 °F /  2.1 °C 30.1in /  1018.5hPa ONO 12.3mph /  19.8km/h 18.4mph /  29.6km/h 32% 0in /  0.0mm
11:49 66.6 °F /  19.2 °C 35.6 °F /  2 °C 30.1in /  1018.5hPa ONO 10.2mph /  16.4km/h 18mph /  29km/h 31.8% 0in /  0.0mm
11:54 66.7 °F /  19.3 °C 35.2 °F /  1.8 °C 30.1in /  1018.5hPa OSO 8.7mph /  14km/h 15.9mph /  25.6km/h 31.2% 0in /  0.0mm
11:59 66.7 °F /  19.3 °C 35.8 °F /  2.1 °C 30.1in /  1018.5hPa Oeste 9mph /  14.5km/h 19.7mph /  31.7km/h 31.9% 0in /  0.0mm
12:04 67.1 °F /  19.5 °C 36.3 °F /  2.4 °C 30.1in /  1018.5hPa ONO 9.2mph /  14.8km/h 20mph /  32.2km/h 32% 0in /  0.0mm
12:09 67.5 °F /  19.7 °C 36.3 °F /  2.4 °C 30.1in /  1018.5hPa ONO 10.1mph /  16.3km/h 18.1mph /  29.1km/h 31.8% 0in /  0.0mm
12:14 67.3 °F /  19.6 °C 35.2 °F /  1.8 °C 30.1in /  1018.6hPa Oeste 10.7mph /  17.2km/h 18.4mph /  29.6km/h 30.7% 0in /  0.0mm
12:19 67.5 °F /  19.7 °C 35.1 °F /  1.7 °C 30.1in /  1018.6hPa Oeste 10.1mph /  16.2km/h 20.7mph /  33.3km/h 30.1% 0in /  0.0mm
12:24 67.6 °F /  19.8 °C 34.5 °F /  1.4 °C 30.1in /  1018.6hPa OSO 9.7mph /  15.6km/h 23mph /  37km/h 29.3% 0in /  0.0mm
12:29 68.4 °F /  20.2 °C 35.6 °F /  2 °C 30.1in /  1018.6hPa ONO 10mph /  16.1km/h 24.2mph /  38.9km/h 30% 0in /  0.0mm
12:34 68.4 °F /  20.2 °C 34.7 °F /  1.5 °C 30.1in /  1018.4hPa Oeste 10.2mph /  16.4km/h 24mph /  38.6km/h 28.9% 0in /  0.0mm
12:39 68.5 °F /  20.3 °C 34.3 °F /  1.3 °C 30.1in /  1018.4hPa Oeste 11.2mph /  18km/h 21.3mph /  34.3km/h 28.2% 0in /  0.0mm
12:44 68.7 °F /  20.4 °C 33.6 °F /  0.9 °C 30.1in /  1018.4hPa ONO 11.8mph /  19km/h 23mph /  37km/h 27.4% 0in /  0.0mm
12:49 68.9 °F /  20.5 °C 34 °F /  1.1 °C 30.1in /  1018.3hPa ONO 12.2mph /  19.7km/h 23mph /  37km/h 27.5% 0in /  0.0mm
12:54 69.1 °F /  20.6 °C 33.8 °F /  1 °C 30.1in /  1018.3hPa Oeste 12.5mph /  20.1km/h 22mph /  35.4km/h 27.1% 0in /  0.0mm
12:59 69.1 °F /  20.6 °C 33.8 °F /  1 °C 30.1in /  1018.3hPa ONO 12.1mph /  19.4km/h 22mph /  35.4km/h 27% 0in /  0.0mm
13:04 69.3 °F /  20.7 °C 33.8 °F /  1 °C 30.1in /  1018.2hPa ONO 11.8mph /  19km/h 21mph /  33.8km/h 27% 0in /  0.0mm
13:09 69.4 °F /  20.8 °C 33.8 °F /  1 °C 30.1in /  1018.2hPa ONO 10.8mph /  17.4km/h 21mph /  33.8km/h 26.6% 0in /  0.0mm
13:14 69.4 °F /  20.8 °C 34 °F /  1.1 °C 30.1in /  1018.2hPa Oeste 10.2mph /  16.4km/h 18mph /  29km/h 27% 0in /  0.0mm
13:19 69.8 °F /  21 °C 34 °F /  1.1 °C 30.1in /  1018.2hPa OSO 10.1mph /  16.2km/h 18.4mph /  29.6km/h 26.7% 0in /  0.0mm
13:24 69.8 °F /  21 °C 33.4 °F /  0.8 °C 30.1in /  1018.2hPa OSO 10mph /  16.1km/h 18mph /  29km/h 26.1% 0in /  0.0mm
13:29 69.8 °F /  21 °C 34.3 °F /  1.3 °C 30.1in /  1018.2hPa ONO 9.2mph /  14.8km/h 18.4mph /  29.6km/h 27% 0in /  0.0mm
13:34 70.3 °F /  21.3 °C 34.3 °F /  1.3 °C 30.1in /  1018.2hPa NO 8.7mph /  14km/h 18mph /  29km/h 26.6% 0in /  0.0mm
13:39 70.5 °F /  21.4 °C 34 °F /  1.1 °C 30.1in /  1018.2hPa ONO 9.6mph /  15.5km/h 16.3mph /  26.2km/h 26% 0in /  0.0mm
13:44 70.5 °F /  21.4 °C 33.6 °F /  0.9 °C 30.1in /  1018.2hPa Oeste 10.2mph /  16.4km/h 19.2mph /  30.9km/h 25.6% 0in /  0.0mm
13:49 70.5 °F /  21.4 °C 32.5 °F /  0.3 °C 30.1in /  1018.2hPa Oeste 10.5mph /  16.9km/h 20mph /  32.2km/h 24.7% 0in /  0.0mm
13:54 70.7 °F /  21.5 °C 33.1 °F /  0.6 °C 30.1in /  1018.2hPa Oeste 10.7mph /  17.2km/h 21.3mph /  34.3km/h 24.9% 0in /  0.0mm
13:59 71.1 °F /  21.7 °C 32.7 °F /  0.4 °C 30.1in /  1018.2hPa Oeste 10.1mph /  16.2km/h 21mph /  33.8km/h 24.3% 0in /  0.0mm
14:04 71.1 °F /  21.7 °C 32.7 °F /  0.4 °C 30.1in /  1018.0hPa Oeste 9.7mph /  15.6km/h 21.9mph /  35.2km/h 24.2% 0in /  0.0mm
14:09 70.9 °F /  21.6 °C 32.5 °F /  0.3 °C 30.1in /  1018.0hPa Oeste 11.3mph /  18.2km/h 22mph /  35.4km/h 24.3% 0in /  0.0mm
14:14 71.1 °F /  21.7 °C 32.9 °F /  0.5 °C 30.1in /  1018.0hPa Oeste 12.3mph /  19.8km/h 21mph /  33.8km/h 24.4% 0in /  0.0mm
14:19 71.2 °F /  21.8 °C 32.9 °F /  0.5 °C 30.1in /  1018.0hPa ONO 11.7mph /  18.9km/h 21.3mph /  34.3km/h 24.2% 0in /  0.0mm
14:24 71.2 °F /  21.8 °C 32.5 °F /  0.3 °C 30.1in /  1018.0hPa ONO 11.4mph /  18.3km/h 20.7mph /  33.3km/h 24% 0in /  0.0mm
14:29 71.1 °F /  21.7 °C 32.7 °F /  0.4 °C 30.1in /  1018.0hPa Oeste 11.6mph /  18.7km/h 21.3mph /  34.3km/h 24.3% 0in /  0.0mm
14:34 71.1 °F /  21.7 °C 32.5 °F /  0.3 °C 30.1in /  1018.0hPa Oeste 11.8mph /  19km/h 21mph /  33.8km/h 24% 0in /  0.0mm
14:39 71.6 °F /  22 °C 33.6 °F /  0.9 °C 30.1in /  1018.0hPa Oeste 10.9mph /  17.5km/h 21mph /  33.8km/h 24.9% 0in /  0.0mm
14:44 71.6 °F /  22 °C 33.8 °F /  1 °C 30.1in /  1018.0hPa ONO 10.2mph /  16.4km/h 21.3mph /  34.3km/h 25% 0in /  0.0mm
14:49 71.6 °F /  22 °C 33.1 °F /  0.6 °C 30.1in /  1017.8hPa Oeste 10.9mph /  17.5km/h 21.5mph /  34.6km/h 24.2% 0in /  0.0mm
14:54 71.8 °F /  22.1 °C 33.1 °F /  0.6 °C 30.1in /  1017.8hPa Oeste 11.4mph /  18.4km/h 22mph /  35.4km/h 24% 0in /  0.0mm
14:59 72.1 °F /  22.3 °C 32.9 °F /  0.5 °C 30.1in /  1017.8hPa Oeste 10.3mph /  16.5km/h 21.9mph /  35.2km/h 23.5% 0in /  0.0mm
15:04 72.1 °F /  22.3 °C 32.4 °F /  0.2 °C 30.1in /  1017.6hPa OSO 9.7mph /  15.6km/h 22mph /  35.4km/h 23.1% 0in /  0.0mm
15:09 72.1 °F /  22.3 °C 33.1 °F /  0.6 °C 30.1in /  1017.6hPa ONO 10.6mph /  17.1km/h 18mph /  29km/h 23.7% 0in /  0.0mm
15:14 72.3 °F /  22.4 °C 32.9 °F /  0.5 °C 30.1in /  1017.6hPa Oeste 11.2mph /  18km/h 23mph /  37km/h 23.5% 0in /  0.0mm
15:19 72 °F /  22.2 °C 33.1 °F /  0.6 °C 30.1in /  1017.6hPa ONO 11.3mph /  18.2km/h 23mph /  37km/h 23.9% 0in /  0.0mm
15:24 72 °F /  22.2 °C 33.1 °F /  0.6 °C 30.1in /  1017.6hPa Oeste 11.4mph /  18.4km/h 20mph /  32.2km/h 24% 0in /  0.0mm
15:29 72 °F /  22.2 °C 33.1 °F /  0.6 °C 30.1in /  1017.6hPa NO 10.5mph /  16.9km/h 17mph /  27.4km/h 24% 0in /  0.0mm
15:34 72.5 °F /  22.5 °C 33.8 °F /  1 °C 30.1in /  1017.5hPa Oeste 10mph /  16.1km/h 19mph /  30.6km/h 24.2% 0in /  0.0mm
15:39 72.9 °F /  22.7 °C 34.2 °F /  1.2 °C 30.1in /  1017.5hPa ONO 9.2mph /  14.8km/h 19mph /  30.6km/h 24.3% 0in /  0.0mm
15:44 72.9 °F /  22.7 °C 34 °F /  1.1 °C 30.1in /  1017.5hPa ONO 8.7mph /  14km/h 18mph /  29km/h 24% 0in /  0.0mm
15:49 72.9 °F /  22.7 °C 34 °F /  1.1 °C 30in /  1017.3hPa ONO 10.4mph /  16.8km/h 20.8mph /  33.5km/h 24.1% 0in /  0.0mm
15:54 72.9 °F /  22.7 °C 34 °F /  1.1 °C 30in /  1017.3hPa ONO 11.8mph /  19km/h 21mph /  33.8km/h 24.1% 0in /  0.0mm
15:59 72.9 °F /  22.7 °C 33.4 °F /  0.8 °C 30in /  1017.3hPa OSO 11.1mph /  17.9km/h 21mph /  33.8km/h 23.5% 0in /  0.0mm
16:04 73.2 °F /  22.9 °C 34 °F /  1.1 °C 30in /  1017.1hPa ONO 10.7mph /  17.2km/h 20.8mph /  33.5km/h 23.7% 0in /  0.0mm
16:09 73.6 °F /  23.1 °C 34 °F /  1.1 °C 30in /  1017.1hPa Oeste 9.7mph /  15.6km/h 21mph /  33.8km/h 23.5% 0in /  0.0mm
16:14 73.4 °F /  23 °C 34 °F /  1.1 °C 30in /  1017.1hPa ONO 9.2mph /  14.8km/h 15.9mph /  25.6km/h 23.6% 0in /  0.0mm
16:19 73.9 °F /  23.3 °C 33.8 °F /  1 °C 30in /  1016.8hPa ONO 7.5mph /  12.1km/h 16.8mph /  27km/h 22.9% 0in /  0.0mm
16:24 73.9 °F /  23.3 °C 33.4 °F /  0.8 °C 30in /  1016.8hPa ONO 6.4mph /  10.3km/h 18.4mph /  29.6km/h 22.7% 0in /  0.0mm
16:29 73.8 °F /  23.2 °C 33.8 °F /  1 °C 30in /  1016.8hPa NO 8.2mph /  13.2km/h 18mph /  29km/h 23.2% 0in /  0.0mm
16:34 73.9 °F /  23.3 °C 34.5 °F /  1.4 °C 30in /  1016.7hPa ONO 9.7mph /  15.6km/h 15mph /  24.1km/h 23.6% 0in /  0.0mm
16:39 73.9 °F /  23.3 °C 34 °F /  1.1 °C 30in /  1016.7hPa ONO 9.1mph /  14.6km/h 17.5mph /  28.2km/h 23.2% 0in /  0.0mm
16:44 73.6 °F /  23.1 °C 34.2 °F /  1.2 °C 30in /  1016.9hPa OSO 8.7mph /  14km/h 17.3mph /  27.8km/h 23.6% 0in /  0.0mm
16:49 73.8 °F /  23.2 °C 34.7 °F /  1.5 °C 30in /  1016.9hPa OSO 8mph /  12.9km/h 8.1mph /  13km/h 24% 0in /  0.0mm
16:54 74.5 °F /  23.6 °C 35.2 °F /  1.8 °C 30in /  1016.9hPa Oeste 7.6mph /  12.2km/h 15.2mph /  24.5km/h 24% 0in /  0.0mm
16:59 74.7 °F /  23.7 °C 35.4 °F /  1.9 °C 30in /  1016.9hPa ONO 6.8mph /  10.9km/h 18.4mph /  29.6km/h 23.9% 0in /  0.0mm
17:04 74.7 °F /  23.7 °C 35.4 °F /  1.9 °C 30in /  1016.7hPa ONO 6.4mph /  10.3km/h 19mph /  30.6km/h 23.9% 0in /  0.0mm
17:09 74.3 °F /  23.5 °C 34.3 °F /  1.3 °C 30in /  1016.7hPa SO 7.6mph /  12.2km/h 16mph /  25.7km/h 23.2% 0in /  0.0mm
17:14 74.5 °F /  23.6 °C 34.2 °F /  1.2 °C 30in /  1016.7hPa SO 8.5mph /  13.7km/h 18.4mph /  29.6km/h 22.9% 0in /  0.0mm
17:19 74.5 °F /  23.6 °C 34.2 °F /  1.2 °C 30in /  1016.7hPa Oeste 8.3mph /  13.3km/h 18mph /  29km/h 23% 0in /  0.0mm
17:24 74.1 °F /  23.4 °C 34.3 °F /  1.3 °C 30in /  1016.7hPa NO 8.1mph /  13km/h 16.1mph /  25.9km/h 23.3% 0in /  0.0mm
17:29 74.1 °F /  23.4 °C 34.9 °F /  1.6 °C 30in /  1016.7hPa NO 7.6mph /  12.3km/h 16mph /  25.7km/h 23.9% 0in /  0.0mm
17:34 74.7 °F /  23.7 °C 34.2 °F /  1.2 °C 30in /  1016.6hPa NO 7.4mph /  11.9km/h 18.4mph /  29.6km/h 22.9% 0in /  0.0mm
17:39 74.8 °F /  23.8 °C 34.5 °F /  1.4 °C 30in /  1016.6hPa ONO 8mph /  12.9km/h 18mph /  29km/h 23% 0in /  0.0mm
17:44 75.2 °F /  24 °C 34.9 °F /  1.6 °C 30in /  1016.7hPa Oeste 8.5mph /  13.7km/h 16.1mph /  25.9km/h 23.1% 0in /  0.0mm
17:49 75.4 °F /  24.1 °C 34.9 °F /  1.6 °C 30in /  1016.7hPa ONO 8.5mph /  13.7km/h 16mph /  25.7km/h 22.9% 0in /  0.0mm
17:54 75.2 °F /  24 °C 34.9 °F /  1.6 °C 30in /  1016.7hPa ONO 8.5mph /  13.7km/h 16.8mph /  27km/h 23% 0in /  0.0mm
17:59 75.2 °F /  24 °C 34.7 °F /  1.5 °C 30in /  1016.7hPa NO 8.3mph /  13.3km/h 17.3mph /  27.8km/h 23% 0in /  0.0mm
18:04 75.4 °F /  24.1 °C 34.7 °F /  1.5 °C 30in /  1016.7hPa ONO 8.1mph /  13km/h 19mph /  30.6km/h 22.8% 0in /  0.0mm
18:09 75 °F /  23.9 °C 34.2 °F /  1.2 °C 30in /  1016.7hPa Oeste 8.4mph /  13.6km/h 19mph /  30.6km/h 22.6% 0in /  0.0mm
18:14 75 °F /  23.9 °C 34.7 °F /  1.5 °C 30in /  1016.7hPa ONO 8.7mph /  14km/h 17.3mph /  27.8km/h 23% 0in /  0.0mm
18:19 75.4 °F /  24.1 °C 35.1 °F /  1.7 °C 30in /  1016.6hPa NO 8mph /  12.9km/h 17.3mph /  27.8km/h 23% 0in /  0.0mm
18:24 75.4 °F /  24.1 °C 35.1 °F /  1.7 °C 30in /  1016.6hPa ONO 7.6mph /  12.2km/h 19mph /  30.6km/h 23% 0in /  0.0mm
18:29 75.6 °F /  24.2 °C 35.1 °F /  1.7 °C 30in /  1016.6hPa NO 7.9mph /  12.7km/h 19mph /  30.6km/h 23% 0in /  0.0mm
18:34 75.6 °F /  24.2 °C 35.2 °F /  1.8 °C 30in /  1016.6hPa ONO 8.1mph /  13km/h 13mph /  20.9km/h 23.1% 0in /  0.0mm
18:39 75.7 °F /  24.3 °C 35.2 °F /  1.8 °C 30in /  1016.6hPa Oeste 7mph /  11.3km/h 13.8mph /  22.2km/h 23% 0in /  0.0mm
18:44 75.6 °F /  24.2 °C 35.1 °F /  1.7 °C 30in /  1016.6hPa ONO 6.4mph /  10.3km/h 14mph /  22.5km/h 23% 0in /  0.0mm
18:49 75.7 °F /  24.3 °C 35.2 °F /  1.8 °C 30in /  1016.4hPa ONO 6.7mph /  10.8km/h 14mph /  22.5km/h 23% 0in /  0.0mm
18:54 75.7 °F /  24.3 °C 35.2 °F /  1.8 °C 30in /  1016.4hPa ONO 6.9mph /  11.1km/h 15.6mph /  25.1km/h 23% 0in /  0.0mm
18:59 75.6 °F /  24.2 °C 35.1 °F /  1.7 °C 30in /  1016.4hPa ONO 7.3mph /  11.8km/h 16.1mph /  25.9km/h 23% 0in /  0.0mm
19:04 75.2 °F /  24 °C 35.1 °F /  1.7 °C 30in /  1016.2hPa ONO 7.6mph /  12.2km/h 16.1mph /  25.9km/h 23.2% 0in /  0.0mm
19:09 75.4 °F /  24.1 °C 35.8 °F /  2.1 °C 30in /  1016.2hPa ONO 8.1mph /  13.1km/h 16mph /  25.7km/h 23.8% 0in /  0.0mm
19:14 75.4 °F /  24.1 °C 36 °F /  2.2 °C 30in /  1016.2hPa NO 8.5mph /  13.7km/h 13mph /  20.9km/h 23.8% 0in /  0.0mm
19:19 75.4 °F /  24.1 °C 36.1 °F /  2.3 °C 30in /  1016.1hPa NO 7mph /  11.3km/h 13mph /  20.9km/h 24% 0in /  0.0mm
19:24 75.6 °F /  24.2 °C 36 °F /  2.2 °C 30in /  1016.1hPa NO 6.2mph /  10km/h 12.7mph /  20.4km/h 23.9% 0in /  0.0mm
19:29 75.4 °F /  24.1 °C 36 °F /  2.2 °C 30in /  1016.3hPa NO 6.2mph /  10km/h 13mph /  20.9km/h 24% 0in /  0.0mm
19:34 75.4 °F /  24.1 °C 36.1 °F /  2.3 °C 30in /  1016.3hPa ONO 6.2mph /  10km/h 12.7mph /  20.4km/h 24% 0in /  0.0mm
19:39 75.6 °F /  24.2 °C 35.8 °F /  2.1 °C 30in /  1016.3hPa ONO 6.3mph /  10.2km/h 13mph /  20.9km/h 23.6% 0in /  0.0mm
19:44 75.6 °F /  24.2 °C 36.1 °F /  2.3 °C 30in /  1016.3hPa NO 6.4mph /  10.3km/h 12.7mph /  20.4km/h 24% 0in /  0.0mm
19:49 75.4 °F /  24.1 °C 36.1 °F /  2.3 °C 30in /  1016.2hPa NO 6.3mph /  10.1km/h 13mph /  20.9km/h 24% 0in /  0.0mm
19:54 75.4 °F /  24.1 °C 36.1 °F /  2.3 °C 30in /  1016.2hPa ONO 6.2mph /  10km/h 13mph /  20.9km/h 24.1% 0in /  0.0mm
19:59 75.6 °F /  24.2 °C 36.3 °F /  2.4 °C 30in /  1016.3hPa ONO 5mph /  8.1km/h 7mph /  11.3km/h 24% 0in /  0.0mm
20:04 75.7 °F /  24.3 °C 36.3 °F /  2.4 °C 30in /  1016.3hPa NO 4.3mph /  6.9km/h 6.9mph /  11.1km/h 24% 0in /  0.0mm
20:09 75.7 °F /  24.3 °C 36.5 °F /  2.5 °C 30in /  1016.3hPa NNO 3.5mph /  5.7km/h 7mph /  11.3km/h 24% 0in /  0.0mm
20:14 75.9 °F /  24.4 °C 36.9 °F /  2.7 °C 30in /  1016.5hPa NO 3.1mph /  5km/h 4.7mph /  7.6km/h 24.3% 0in /  0.0mm
20:19 75.9 °F /  24.4 °C 42.1 °F /  5.6 °C 30in /  1016.5hPa ENE 2.7mph /  4.3km/h 5.8mph /  9.3km/h 29.8% 0in /  0.0mm
20:24 75 °F /  23.9 °C 45.5 °F /  7.5 °C 30in /  1016.5hPa Este 2.4mph /  3.9km/h 8.5mph /  13.7km/h 34.9% 0in /  0.0mm
20:29 73.2 °F /  22.9 °C 45.5 °F /  7.5 °C 30in /  1016.7hPa ESE 3.5mph /  5.7km/h 10.7mph /  17.2km/h 37.1% 0in /  0.0mm
20:34 72 °F /  22.2 °C 46 °F /  7.8 °C 30in /  1016.7hPa ESE 4.3mph /  6.9km/h 16.1mph /  25.9km/h 39.7% 0in /  0.0mm
20:39 70.9 °F /  21.6 °C 46 °F /  7.8 °C 30in /  1016.7hPa ESE 6.5mph /  10.5km/h 16mph /  25.7km/h 41.1% 0in /  0.0mm
20:44 70.2 °F /  21.2 °C 46 °F /  7.8 °C 30in /  1017.0hPa ESE 8.1mph /  13km/h 15mph /  24.1km/h 42% 0in /  0.0mm
20:49 69.8 °F /  21 °C 46 °F /  7.8 °C 30in /  1017.0hPa ESE 8.4mph /  13.6km/h 14mph /  22.5km/h 42.7% 0in /  0.0mm
20:54 69.6 °F /  20.9 °C 46 °F /  7.8 °C 30in /  1017.0hPa ESE 8.7mph /  14km/h 12mph /  19.3km/h 43% 0in /  0.0mm
20:59 69.4 °F /  20.8 °C 46 °F /  7.8 °C 30in /  1017.4hPa SSE 7mph /  11.3km/h 10mph /  16.1km/h 43% 0in /  0.0mm
21:04 69.4 °F /  20.8 °C 44.6 °F /  7 °C 30in /  1017.4hPa Sur 6.2mph /  10km/h 11.4mph /  18.3km/h 40.7% 0in /  0.0mm
21:09 69.8 °F /  21 °C 44.1 °F /  6.7 °C 30in /  1017.4hPa SSE 6.3mph /  10.1km/h 12mph /  19.3km/h 39.6% 0in /  0.0mm
21:14 70 °F /  21.1 °C 44.4 °F /  6.9 °C 30.1in /  1017.7hPa SSE 6.4mph /  10.3km/h 12mph /  19.3km/h 40% 0in /  0.0mm
21:19 69.8 °F /  21 °C 45 °F /  7.2 °C 30.1in /  1017.7hPa ESE 6.1mph /  9.8km/h 8.1mph /  13km/h 40.9% 0in /  0.0mm
21:24 69.3 °F /  20.7 °C 45.5 °F /  7.5 °C 30.1in /  1017.7hPa ESE 5.9mph /  9.5km/h 7mph /  11.3km/h 42.3% 0in /  0.0mm
21:29 68.9 °F /  20.5 °C 45.5 °F /  7.5 °C 30.1in /  1017.9hPa ESE 4.8mph /  7.7km/h 7mph /  11.3km/h 43% 0in /  0.0mm
21:34 68.5 °F /  20.3 °C 45.1 °F /  7.3 °C 30.1in /  1017.9hPa SE 4mph /  6.5km/h 6mph /  9.7km/h 43% 0in /  0.0mm
21:39 68.4 °F /  20.2 °C 44.8 °F /  7.1 °C 30.1in /  1017.9hPa SSE 4.2mph /  6.8km/h 6.9mph /  11.1km/h 42.8% 0in /  0.0mm
21:44 68.5 °F /  20.3 °C 44.6 °F /  7 °C 30.1in /  1018.1hPa SSE 4.3mph /  6.9km/h 7mph /  11.3km/h 42.1% 0in /  0.0mm
21:49 68.5 °F /  20.3 °C 44.2 °F /  6.8 °C 30.1in /  1018.1hPa SSE 4.3mph /  6.9km/h 6mph /  9.7km/h 41.6% 0in /  0.0mm
21:54 68.7 °F /  20.4 °C 43.9 °F /  6.6 °C 30.1in /  1018.1hPa SE 4.3mph /  6.9km/h 6mph /  9.7km/h 40.8% 0in /  0.0mm
21:59 68.5 °F /  20.3 °C 43.7 °F /  6.5 °C 30.1in /  1018.4hPa SSE 3.9mph /  6.2km/h 6mph /  9.7km/h 40.7% 0in /  0.0mm
22:04 68.4 °F /  20.2 °C 41.9 °F /  5.5 °C 30.1in /  1018.4hPa Sur 3.6mph /  5.8km/h 8.1mph /  13km/h 38.1% 0in /  0.0mm
22:09 68.4 °F /  20.2 °C 41.7 °F /  5.4 °C 30.1in /  1018.4hPa Sur 4mph /  6.5km/h 8mph /  12.9km/h 38% 0in /  0.0mm
22:14 68.4 °F /  20.2 °C 41.4 °F /  5.2 °C 30.1in /  1018.7hPa SSO 4.3mph /  6.9km/h 9.7mph /  15.6km/h 37.3% 0in /  0.0mm
22:19 68.2 °F /  20.1 °C 41 °F /  5 °C 30.1in /  1018.7hPa SSO 4.8mph /  7.8km/h 10mph /  16.1km/h 37.1% 0in /  0.0mm
22:24 68.2 °F /  20.1 °C 40.8 °F /  4.9 °C 30.1in /  1018.7hPa Sur 5.2mph /  8.4km/h 8.1mph /  13km/h 37% 0in /  0.0mm
22:29 68 °F /  20 °C 40.8 °F /  4.9 °C 30.1in /  1018.9hPa SSO 5.3mph /  8.5km/h 9.2mph /  14.8km/h 37% 0in /  0.0mm
22:34 67.8 °F /  19.9 °C 41.4 °F /  5.2 °C 30.1in /  1018.9hPa SO 5.4mph /  8.7km/h 9mph /  14.5km/h 38.1% 0in /  0.0mm
22:39 67.8 °F /  19.9 °C 41.9 °F /  5.5 °C 30.1in /  1018.9hPa SO 4.7mph /  7.6km/h 7mph /  11.3km/h 39% 0in /  0.0mm
22:44 67.6 °F /  19.8 °C 42.1 °F /  5.6 °C 30.1in /  1019.0hPa SSO 4.3mph /  6.9km/h 6.9mph /  11.1km/h 39.3% 0in /  0.0mm
22:49 67.5 °F /  19.7 °C 42.3 °F /  5.7 °C 30.1in /  1019.0hPa SSO 4.1mph /  6.6km/h 7.4mph /  11.9km/h 40% 0in /  0.0mm
22:54 67.1 °F /  19.5 °C 41.9 °F /  5.5 °C 30.1in /  1019.0hPa SSO 4mph /  6.5km/h 7mph /  11.3km/h 40% 0in /  0.0mm
22:55 66.9 °F /  19.4 °C 41.7 °F /  5.4 °C 30.1in /  1019.0hPa SSO 4.5mph /  7.2km/h 7mph /  11.3km/h 40% 0in /  0.0mm
23:04 66.7 °F /  19.3 °C 41.5 °F /  5.3 °C 30.1in /  1019.2hPa SO 4.3mph /  6.9km/h 7mph /  11.3km/h 40% 0in /  0.0mm
23:09 66.6 °F /  19.2 °C 41.5 °F /  5.3 °C 30.1in /  1019.2hPa SO 3.9mph /  6.2km/h 6mph /  9.7km/h 40% 0in /  0.0mm
23:14 66.6 °F /  19.2 °C 41.4 °F /  5.2 °C 30.1in /  1019.3hPa SO 3.6mph /  5.8km/h 5mph /  8km/h 40% 0in /  0.0mm
23:19 66.4 °F /  19.1 °C 41.4 °F /  5.2 °C 30.1in /  1019.3hPa SSO 3.2mph /  5.1km/h 5.2mph /  8.4km/h 40% 0in /  0.0mm
23:24 66.2 °F /  19 °C 41.4 °F /  5.2 °C 30.1in /  1019.3hPa Sur 2.9mph /  4.7km/h 5mph /  8km/h 40.1% 0in /  0.0mm
23:29 66 °F /  18.9 °C 41.7 °F /  5.4 °C 30.1in /  1019.4hPa Este 2.4mph /  3.8km/h 3.5mph /  5.6km/h 41.1% 0in /  0.0mm
23:34 65.8 °F /  18.8 °C 42.1 °F /  5.6 °C 30.1in /  1019.4hPa NE 2mph /  3.2km/h 4.7mph /  7.6km/h 42% 0in /  0.0mm
23:39 65.7 °F /  18.7 °C 41.9 °F /  5.5 °C 30.1in /  1019.4hPa Oeste 2mph /  3.2km/h 5mph /  8km/h 42% 0in /  0.0mm
23:44 65.5 °F /  18.6 °C 41.2 °F /  5.1 °C 30.1in /  1019.5hPa SSO 2mph /  3.2km/h 5mph /  8km/h 41.2% 0in /  0.0mm
23:49 65.5 °F /  18.6 °C 41.2 °F /  5.1 °C 30.1in /  1019.5hPa SO 2.2mph /  3.6km/h 5mph /  8km/h 41% 0in /  0.0mm
23:54 65.5 °F /  18.6 °C 40.8 °F /  4.9 °C 30.1in /  1019.5hPa SSO 2.4mph /  3.9km/h 5mph /  8km/h 40.7% 0in /  0.0mm
23:59 65.3 °F /  18.5 °C 41 °F /  5 °C 30.1in /  1019.6hPa ESE 2.4mph /  3.9km/h 5.8mph /  9.3km/h 40.9% 0in /  0.0mm
Murcia-Puente Tocinos, España
Compliments of Weather Underground - 2.75 mb

La estación de MeteoMurcia.com, publica sus datos en los siguientes proyectos:

Weather Underground PWS IMURCIAP2 Meteoclimatic www.awekas.at

W3Counter
Web Analytics